Details From KNOW - Port Angeles Cgas
To KNUW - Whidbey Island Nas
Flight Number -
Tags Generated
Created
Modified
Stats Distance 33 nm / 61 km
Max Altitude 0 ft / 0 m
Waypoints 2
Social Downloads 2
Likes 0
Share VATSIM

Download

Looking for another format? Having issues loading an existing format? Contact us
Advertisement - Login to hide

Notes

Generated

Route

KNOW KNUW

ID Type Via Altitude Latitude Longitude Leg Dist Tot Dist Heading (true) Name
O KNOW APT - 0 ft / 0 m 48.14167˚ -123.42315˚ - 0 nm - -
O KNUW APT - 0 ft / 0 m 48.36167˚ -122.66246˚ 33 nm 33 nm 66° / 67° -

Altitude Profile

Advertisement - Login to hide

KNOW

Details ICAO KNOW (NOW)
Name PORT ANGELES CGAS
Region United States
Timezone Unknown (UTC+0.0)
Stats Elevation 13 ft / 4 m (AMSL)
Location 48.141293° -123.413955°
Runways 1
Magnetic Variation 16.043° E

METAR

KNOW 181315Z AUTO 29020G26KT 10SM SCT065 08/06 A2999 RMK AO2 T00840056

Decode

TAF

Not found

Departure Runways

ID Width Length Bearing (true) Bearing (mag) Surface Threshold Offset Overrun Length
07 151 ft / 46 m 4,488 ft / 1,368 m 93.55° 77.51° Asphalt 0 ft / 0 m 0 ft / 0 m
25 151 ft / 46 m 4,488 ft / 1,368 m 273.57° 257.53° Asphalt 0 ft / 0 m 0 ft / 0 m

KNUW

Details ICAO KNUW (NUW)
Name WHIDBEY ISLAND NAS
Region United States
Timezone America/Los_Angeles (UTC-8.0)
Stats Elevation 47 ft / 14 m (AMSL)
Location 48.351803° -122.655907°
Runways 2
Magnetic Variation 15.964° E

METAR

KNUW 181256Z 26018G24KT 10SM SCT010 BKN042 OVC060 10/07 A3000 RMK AO2 SLP159 T01000067 $

Decode

TAF

TAF AMD KNUW 1807/1907 14012KT 8000 -RA FEW008 SCT015 BKN035 OVC050 640509 641405 550109 551004 QNH2992INS TEMPO 1809/1815 6000 -RA OVC010 FM181500 27012G18KT 9999 FEW008 BKN030 BKN050 BKN100 640409 641306 550109 551004 QNH2995INS TEMPO 1815/1819 9000 -RA SCT008 BKN020 BKN050 BKN100 FM190400 VRB06KT 9999 SCT007 BKN020 OVC050 640209 641108 550509 551409 QNH3002INS T06/1815Z T12/1804Z AMD 0735 FS30119

Decode

Destination Runways

ID Width Length Bearing (true) Bearing (mag) Surface Threshold Offset Overrun Length
07 200 ft / 61 m 7,977 ft / 2,432 m 86.95° 70.99° Concrete 0 ft / 0 m 1,000 ft / 305 m
13 200 ft / 61 m 7,999 ft / 2,438 m 154.71° 138.75° Concrete 0 ft / 0 m 1,000 ft / 305 m
25 200 ft / 61 m 7,977 ft / 2,432 m 266.97° 251.01° Concrete 0 ft / 0 m 1,000 ft / 305 m
31 200 ft / 61 m 7,999 ft / 2,438 m 334.72° 318.76° Concrete 0 ft / 0 m 1,000 ft / 305 m

Approach Navaids

Runway Type Ident Frequency Range Bearing (true) Bearing (mag) Slope Elevation
13 Localiser INUW 110.10 MHz 18 nm / 33 km 154.72° 138.75° - 47 ft / 14 m (AMSL)
13 Glidescope INUW 110.10 MHz 10 nm / 19 km 154.71° 138.75° 3.00° 47 ft / 14 m (AMSL)